Station Historical Data
Daily Summary for July 28, 2017 Units:  Metric    English   Both
« Previous Day
Next Day »
Daily Weekly Monthly Yearly Custom
  High: Low: Average:
Temperature: 27.2 °C 21.8 °C 24.5 °C
Dew Point: 24.5 °C 20.7 °C 22.6 °C
Humidity: 95% 80% 89%
Wind Speed: 9.8km/h 0km/h 7.6km/h
Wind Gust: 9.8km/h - -
Wind- - SE
Pressure: 1014.1 hPa 1008.7 hPa -
Precipitation: 0.51 mm    
Historical Graphs
 
 
Tabular Data for July 28, 2017
Time Temperature Dew Point Pressure Wind Wind Speed Wind Gust Humidity Rainfall Rate (Hourly) Conditions
00:04 22.9 °C 21.9 °C 1014.1 hPa WSW 9.8 km/h   94% 0 mm BKN
00:09 22.8 °C 21.8 °C 1014.1 hPa WSW 9.8 km/h   94% 0 mm BKN
00:15 22.8 °C 21.8 °C 1014.1 hPa Calm     94% 0 mm BKN
00:20 22.8 °C 21.8 °C 1014.1 hPa Calm     94% 0 mm CLR
00:25 22.7 °C 21.7 °C 1013.8 hPa Calm     94% 0 mm CLR
00:30 22.7 °C 21.7 °C 1013.8 hPa Calm     94% 0 mm CLR
00:35 22.7 °C 21.7 °C 1013.8 hPa Calm     94% 0.25 mm RA
00:40 22.7 °C 21.6 °C 1013.8 hPa Calm     94% 0 mm CLR
00:45 22.6 °C 21.6 °C 1013.8 hPa Calm     94% 0 mm CLR
00:48 22.6 °C 21.6 °C 1013.8 hPa WSW 9.8 km/h   94% 0.25 mm CLR
00:53 22.6 °C 21.6 °C 1013.8 hPa WSW 9.8 km/h   94% 0.25 mm CLR
00:58 22.5 °C 21.5 °C 1013.8 hPa WSW 9.8 km/h   94% 0.25 mm CLR
01:03 22.4 °C 21.4 °C 1013.8 hPa WSW 9.8 km/h   94% 0.25 mm CLR
01:08 21.8 °C 20.7 °C 1013.8 hPa WSW 9.8 km/h   93% 0.25 mm CLR
01:13 22.9 °C 21.7 °C 1013.8 hPa WSW 9.8 km/h   93% 0.25 mm CLR
01:17 22.9 °C 21.7 °C 1013.8 hPa WSW 9.8 km/h   93% 0.25 mm CLR
01:22 22.9 °C 21.7 °C 1014.1 hPa North 9.8 km/h   93% 0.25 mm CLR
01:27 22.9 °C 21.7 °C 1013.8 hPa North 9.8 km/h   93% 0.25 mm CLR
01:32 22.9 °C 21.7 °C 1013.8 hPa North 9.8 km/h   93% 0.25 mm CLR
01:37 22.9 °C 21.7 °C 1013.8 hPa North 9.8 km/h   93% 0 mm CLR
01:42 22.9 °C 21.7 °C 1013.8 hPa North 9.8 km/h   93% 0 mm CLR
01:43 22.9 °C 21.7 °C 1013.8 hPa North 9.8 km/h   93% 0 mm CLR
01:48 22.9 °C 21.7 °C 1013.8 hPa North 9.8 km/h   93% 0 mm CLR
01:53 22.9 °C 21.7 °C 1013.4 hPa North 9.8 km/h   93% 0 mm CLR
01:58 22.9 °C 21.7 °C 1013.4 hPa North 9.8 km/h   93% 0 mm CLR
02:03 22.9 °C 21.7 °C 1013.4 hPa North 9.8 km/h   93% 0 mm CLR
02:09 22.9 °C 21.7 °C 1013.4 hPa North 9.8 km/h   93% 0 mm CLR
02:14 22.9 °C 21.7 °C 1013.4 hPa North 9.8 km/h   93% 0 mm CLR
02:19 22.9 °C 21.7 °C 1013.4 hPa North 9.8 km/h   93% 0 mm CLR
02:24 22.9 °C 21.7 °C 1013.4 hPa North 9.8 km/h   93% 0 mm CLR
02:27 22.9 °C 21.7 °C 1013.4 hPa North 9.8 km/h   93% 0 mm CLR
02:32 22.9 °C 21.7 °C 1013.4 hPa North 9.8 km/h   93% 0 mm CLR
02:37 22.9 °C 21.7 °C 1013.4 hPa North 9.8 km/h   93% 0 mm CLR
02:42 22.9 °C 21.7 °C 1013.4 hPa North 9.8 km/h   93% 0 mm CLR
02:47 22.9 °C 21.7 °C 1013.1 hPa North 9.8 km/h   93% 0 mm CLR
02:52 22.9 °C 21.7 °C 1013.1 hPa North 9.8 km/h   93% 0 mm CLR
02:57 22.9 °C 21.7 °C 1013.1 hPa North 9.8 km/h   93% 0 mm CLR
03:03 22.9 °C 21.7 °C 1013.1 hPa North 9.8 km/h   93% 0 mm CLR
03:08 22.9 °C 21.7 °C 1013.1 hPa North 9.8 km/h   93% 0 mm CLR
03:13 22.9 °C 21.7 °C 1013.1 hPa North 9.8 km/h   93% 0 mm CLR
03:18 22.9 °C 21.7 °C 1013.1 hPa North 9.8 km/h   93% 0 mm CLR
03:23 22.9 °C 21.7 °C 1013.1 hPa North 9.8 km/h   93% 0 mm CLR
03:28 22.9 °C 21.7 °C 1013.1 hPa North 9.8 km/h   93% 0 mm CLR
03:33 22.9 °C 21.7 °C 1013.1 hPa North 9.8 km/h   93% 0 mm CLR
03:38 22.9 °C 21.7 °C 1013.1 hPa North 9.8 km/h   93% 0 mm CLR
03:43 22.9 °C 21.7 °C 1013.1 hPa North 9.8 km/h   93% 0 mm CLR
03:48 22.9 °C 21.7 °C 1013.1 hPa North 9.8 km/h   93% 0 mm CLR
03:53 22.9 °C 21.7 °C 1013.1 hPa North 9.8 km/h   93% 0 mm CLR
03:59 22.9 °C 21.7 °C 1012.8 hPa North 9.8 km/h   93% 0 mm CLR
04:04 22.9 °C 21.7 °C 1012.8 hPa North 9.8 km/h   93% 0 mm CLR
04:09 22.9 °C 21.7 °C 1012.8 hPa North 9.8 km/h   93% 0 mm CLR
04:14 22.9 °C 21.7 °C 1012.8 hPa North 9.8 km/h   93% 0 mm CLR
04:19 22.9 °C 21.7 °C 1012.8 hPa North 9.8 km/h   93% 0 mm CLR
04:24 22.9 °C 21.7 °C 1012.4 hPa North 9.8 km/h   93% 0 mm CLR
04:29 22.9 °C 21.7 °C 1012.4 hPa North 9.8 km/h   93% 0 mm CLR
04:34 22.9 °C 21.7 °C 1012.4 hPa North 9.8 km/h   93% 0 mm CLR
04:39 22.9 °C 21.7 °C 1012.4 hPa North 9.8 km/h   93% 0 mm CLR
04:44 22.9 °C 21.7 °C 1012.4 hPa North 9.8 km/h   93% 0 mm CLR
04:49 22.9 °C 21.7 °C 1012.4 hPa North 9.8 km/h   93% 0 mm CLR
04:54 22.9 °C 21.7 °C 1012.4 hPa North 9.8 km/h   93% 0 mm CLR
04:59 22.9 °C 21.7 °C 1012.4 hPa North 9.8 km/h   93% 0 mm CLR
05:04 22.9 °C 21.7 °C 1012.4 hPa North 9.8 km/h   93% 0 mm CLR
05:10 22.9 °C 21.7 °C 1012.4 hPa North 9.8 km/h   93% 0 mm CLR
05:15 22.9 °C 21.7 °C 1012.4 hPa Calm     93% 0 mm CLR
05:20 22.9 °C 21.7 °C 1012.4 hPa Calm     93% 0 mm CLR
05:25 22.9 °C 21.7 °C 1012.4 hPa North 9.8 km/h   93% 0 mm CLR
05:30 22.9 °C 21.7 °C 1012.4 hPa Calm     93% 0 mm CLR
05:35 22.9 °C 21.7 °C 1012.4 hPa Calm     93% 0 mm CLR
05:40 22.9 °C 21.7 °C 1012.4 hPa North 9.8 km/h   93% 0 mm CLR
05:45 22.9 °C 21.7 °C 1012.4 hPa Calm     93% 0 mm CLR
05:50 22.9 °C 21.7 °C 1012.4 hPa Calm     93% 0 mm CLR
05:55 22.9 °C 21.7 °C 1012.4 hPa Calm     93% 0 mm CLR
06:00 22.9 °C 21.7 °C 1012.4 hPa Calm     93% 0 mm CLR
06:05 22.9 °C 21.7 °C 1012.4 hPa Calm     93% 0 mm CLR
06:10 22.9 °C 21.7 °C 1012.4 hPa Calm     93% 0 mm CLR
06:15 22.9 °C 21.7 °C 1012.4 hPa Calm     93% 0 mm CLR
06:20 22.9 °C 21.7 °C 1012.4 hPa Calm     93% 0 mm CLR
06:25 22.9 °C 21.7 °C 1012.4 hPa Calm     93% 0 mm CLR
06:30 22.9 °C 21.7 °C 1012.4 hPa Calm     93% 0 mm CLR
06:35 22.9 °C 21.7 °C 1012.4 hPa Calm     93% 0 mm CLR
06:40 22.9 °C 21.7 °C 1012.4 hPa Calm     93% 0 mm CLR
06:45 22.9 °C 21.7 °C 1012.4 hPa North 9.8 km/h   93% 0 mm CLR
06:50 22.9 °C 21.7 °C 1012.4 hPa North 9.8 km/h   93% 0 mm CLR
06:55 22.9 °C 21.7 °C 1012.4 hPa North 9.8 km/h   93% 0 mm CLR
07:00 22.9 °C 21.7 °C 1012.4 hPa North 9.8 km/h   93% 0 mm CLR
07:05 22.9 °C 21.7 °C 1012.4 hPa North 9.8 km/h   93% 0 mm CLR
07:10 22.9 °C 21.7 °C 1012.4 hPa North 9.8 km/h   93% 0 mm CLR
07:15 22.9 °C 21.7 °C 1012.4 hPa North 9.8 km/h   93% 0 mm CLR
07:20 22.9 °C 21.7 °C 1012.8 hPa North 9.8 km/h   93% 0 mm BKN
07:25 22.9 °C 21.7 °C 1012.8 hPa North 9.8 km/h   93% 0 mm BKN
07:30 22.9 °C 21.7 °C 1012.4 hPa North 9.8 km/h   93% 0 mm BKN
07:35 22.9 °C 21.7 °C 1012.8 hPa North 9.8 km/h   93% 0 mm BKN
07:40 22.9 °C 21.7 °C 1012.8 hPa North 9.8 km/h   93% 0 mm BKN
07:45 22.9 °C 21.7 °C 1012.8 hPa North 9.8 km/h   93% 0 mm BKN
07:50 22.9 °C 21.7 °C 1012.8 hPa North 9.8 km/h   93% 0 mm BKN
07:56 22.9 °C 21.7 °C 1012.8 hPa North 9.8 km/h   93% 0 mm BKN
08:01 22.9 °C 21.7 °C 1012.8 hPa North 9.8 km/h   93% 0 mm BKN
08:06 22.9 °C 21.7 °C 1012.8 hPa North 9.8 km/h   93% 0 mm BKN
08:11 22.9 °C 21.7 °C 1012.8 hPa North 9.8 km/h   93% 0 mm BKN
08:16 22.9 °C 21.7 °C 1012.8 hPa North 9.8 km/h   93% 0 mm BKN
08:21 22.9 °C 21.7 °C 1012.8 hPa North 9.8 km/h   93% 0 mm BKN
08:26 22.9 °C 21.7 °C 1012.8 hPa North 9.8 km/h   93% 0 mm BKN
08:27 22.9 °C 21.7 °C 1012.8 hPa North 9.8 km/h   93% 0 mm BKN
08:32 22.9 °C 21.7 °C 1012.8 hPa North 9.8 km/h   93% 0 mm BKN
08:37 22.9 °C 21.7 °C 1012.8 hPa North 9.8 km/h   93% 0 mm BKN
08:42 22.9 °C 21.7 °C 1013.1 hPa North 9.8 km/h   93% 0 mm BKN
08:47 22.9 °C 21.7 °C 1012.8 hPa North 9.8 km/h   93% 0 mm BKN
08:52 22.9 °C 21.7 °C 1013.1 hPa North 9.8 km/h   93% 0 mm BKN
08:57 22.9 °C 21.7 °C 1013.1 hPa North 9.8 km/h   93% 0 mm BKN
09:02 24.1 °C 23.2 °C 1013.1 hPa WSW 9.8 km/h   95% 0 mm BKN
09:07 24.2 °C 23.3 °C 1013.1 hPa WSW 9.8 km/h   95% 0 mm BKN
09:12 24.2 °C 23.3 °C 1013.1 hPa WSW 9.8 km/h   95% 0 mm BKN
09:17 24.2 °C 23.2 °C 1013.1 hPa WSW 9.8 km/h   94% 0 mm BKN
09:22 24.6 °C 23.7 °C 1012.8 hPa WSW 9.8 km/h   95% 0 mm BKN
09:27 24.8 °C 24 °C 1012.8 hPa WSW 9.8 km/h   95% 0 mm BKN
09:32 25 °C 24.2 °C 1012.8 hPa WSW 9.8 km/h   95% 0 mm BKN
09:37 25.1 °C 24.2 °C 1013.1 hPa WSW 9.8 km/h   95% 0 mm BKN
09:42 25 °C 24.2 °C 1013.1 hPa WSW 9.8 km/h   95% 0 mm BKN
09:47 25.2 °C 24.1 °C 1013.1 hPa WSW 9.8 km/h   94% 0 mm BKN
09:52 25.3 °C 24.2 °C 1013.1 hPa WSW 9.8 km/h   94% 0 mm BKN
09:58 25.4 °C 24.4 °C 1013.1 hPa WSW 9.8 km/h   94% 0 mm BKN
10:03 25.5 °C 24.4 °C 1012.8 hPa WSW 9.8 km/h   94% 0 mm BKN
10:08 25.4 °C 24.3 °C 1012.8 hPa WNW 9.8 km/h 9.8 km/h 94% 0 mm BKN
10:13 25.4 °C 24.4 °C 1012.8 hPa NNW 9.8 km/h   94% 0 mm BKN
10:23 25.7 °C 24.5 °C 1012.8 hPa WNW 9.8 km/h 9.8 km/h 93% 0 mm BKN
10:28 25.8 °C 24.3 °C 1012.8 hPa WNW 9.8 km/h 9.8 km/h 91% 0 mm BKN
10:33 25.9 °C 24.2 °C 1012.8 hPa WNW 9.8 km/h   90% 0 mm BKN
10:38 26.1 °C 24.1 °C 1012.8 hPa WNW 9.8 km/h 9.8 km/h 89% 0 mm BKN
10:43 26.1 °C 24.2 °C 1012.8 hPa WNW 9.8 km/h   89% 0 mm BKN
10:48 26.2 °C 24.3 °C 1012.8 hPa WNW 9.8 km/h   89% 0 mm BKN
10:53 26.2 °C 24.1 °C 1013.1 hPa West 9.8 km/h   88% 0 mm BKN
10:58 26.2 °C 23.9 °C 1013.1 hPa NW 9.8 km/h   87% 0 mm BKN
11:03 26.2 °C 23.9 °C 1013.1 hPa NNE 9.8 km/h   87% 0 mm BKN
11:08 26.2 °C 23.9 °C 1013.1 hPa WNW 9.8 km/h 9.8 km/h 87% 0 mm BKN
11:13 26.2 °C 23.9 °C 1013.1 hPa WNW 9.8 km/h   87% 0 mm BKN
11:19 26.2 °C 23.8 °C 1013.1 hPa West 9.8 km/h 9.8 km/h 87% 0 mm BKN
11:24 26.1 °C 23.8 °C 1013.1 hPa NNW 9.8 km/h   87% 0 mm BKN
11:29 26.1 °C 23.7 °C 1013.1 hPa NNW 9.8 km/h   87% 0 mm BKN
11:34 26 °C 23.7 °C 1013.1 hPa West 9.8 km/h 9.8 km/h 87% 0 mm BKN
11:39 25.9 °C 23.6 °C 1013.1 hPa West 9.8 km/h   87% 0 mm BKN
11:49 25.9 °C 23.6 °C 1013.1 hPa West 9.8 km/h   87% 0 mm BKN
11:54 25.9 °C 23.6 °C 1013.1 hPa West 9.8 km/h   87% 0 mm BKN
11:59 26 °C 23.7 °C 1013.1 hPa West 9.8 km/h 9.8 km/h 87% 0 mm BKN
12:09 25.9 °C 23.4 °C 1013.1 hPa North 9.8 km/h   86% 0.25 mm RA
12:14 25.9 °C 23.6 °C 1013.1 hPa North 9.8 km/h 9.8 km/h 87% 0.25 mm BKN
12:20 25.9 °C 23.6 °C 1013.1 hPa Calm   1.6 km/h 87% 0 mm OVC
12:25 25.7 °C 23 °C 1013.1 hPa Calm   3.2 km/h 85% 0 mm OVC
12:30 25.7 °C 22.9 °C 1013.1 hPa Calm   3.2 km/h 85% 0 mm OVC
12:35 25.6 °C 22.9 °C 1013.1 hPa Calm   4.8 km/h 85% 0 mm OVC
12:40 25.6 °C 22.8 °C 1013.1 hPa Calm   1.6 km/h 85% 0 mm OVC
12:45 25.4 °C 22.9 °C 1013.1 hPa Calm   3.2 km/h 86% 0 mm OVC
12:50 25.3 °C 23 °C 1013.1 hPa Calm   1.6 km/h 87% 0 mm OVC
12:55 25.1 °C 22.8 °C 1013.1 hPa NNW 9.8 km/h   87% 0.25 mm OVC
13:00 24.9 °C 22.6 °C 1013.1 hPa WNW 9.8 km/h 9.8 km/h 87% 0.25 mm OVC
13:10 24.7 °C 22.6 °C 1013.1 hPa WNW 9.8 km/h   88% 0 mm -RA
13:14 24.5 °C 22.6 °C 1013.1 hPa WNW 9.8 km/h   89% 0 mm -RA
13:19 24.4 °C 22.7 °C 1012.8 hPa WNW 9.8 km/h   90% 0 mm -RA
13:24 24.4 °C 22.7 °C 1012.8 hPa WNW 9.8 km/h   90% 0 mm -RA
13:29 24.4 °C 22.7 °C 1012.4 hPa WNW 9.8 km/h   90% 0 mm -RA
13:35 24.6 °C 23 °C 1012.4 hPa WNW 9.8 km/h   91% 0 mm -RA
13:40 24.6 °C 23.1 °C 1012.4 hPa Calm     91% 0 mm -RA
13:45 24.7 °C 23.1 °C 1012.4 hPa Calm     91% 0 mm -RA
13:50 24.8 °C 23 °C 1012.1 hPa Calm     90% 0 mm OVC
13:55 24.9 °C 23.1 °C 1012.1 hPa Calm   1.6 km/h 90% 0 mm OVC
14:00 24.9 °C 23 °C 1012.1 hPa Calm     89% 0 mm OVC
14:05 25 °C 23.1 °C 1012.1 hPa Calm     89% 0 mm OVC
14:10 25 °C 23.1 °C 1012.1 hPa Calm     89% 0 mm OVC
14:15 25 °C 23.1 °C 1012.1 hPa Calm     89% 0 mm OVC
14:20 25 °C 23.2 °C 1011.7 hPa Calm   1.6 km/h 90% 0 mm OVC
14:25 24.9 °C 22.8 °C 1011.7 hPa NW 9.8 km/h   88% 0 mm OVC
14:30 25.1 °C 23.1 °C 1011.7 hPa Calm     89% 0 mm OVC
14:35 25.1 °C 22.9 °C 1011.4 hPa Calm     88% 0 mm OVC
14:40 25.1 °C 22.7 °C 1011.4 hPa Calm   3.2 km/h 87% 0 mm OVC
14:45 25.1 °C 22.6 °C 1011.4 hPa Calm   1.6 km/h 86% 0 mm OVC
14:50 25.1 °C 22.6 °C 1011.1 hPa Calm   1.6 km/h 86% 0 mm OVC
14:55 25.2 °C 22.5 °C 1011.1 hPa Calm   1.6 km/h 85% 0 mm OVC
15:00 25.4 °C 22.7 °C 1011.1 hPa Calm   3.2 km/h 85% 0 mm OVC
15:05 25.5 °C 22.8 °C 1011.1 hPa Calm   4.8 km/h 85% 0 mm OVC
15:10 25.7 °C 22.9 °C 1011.1 hPa SSW 9.8 km/h 9.8 km/h 85% 0 mm OVC
15:15 25.7 °C 22.8 °C 1011.1 hPa West 1.6 km/h 4.8 km/h 84% 0 mm OVC
15:16 25.7 °C 22.8 °C 1011.1 hPa NNW 9.8 km/h   84% 0 mm OVC
15:21 25.8 °C 23.1 °C 1011.1 hPa WNW 9.8 km/h 9.8 km/h 85% 0 mm OVC
15:26 25.8 °C 22.9 °C 1010.7 hPa WNW 9.8 km/h   84% 0 mm OVC
15:31 25.9 °C 23.2 °C 1010.7 hPa WNW 9.8 km/h   85% 0 mm OVC
15:36 25.9 °C 22.8 °C 1010.7 hPa North 9.8 km/h   83% 0 mm OVC
15:41 26 °C 22.9 °C 1010.7 hPa West 9.8 km/h 9.8 km/h 83% 0 mm OVC
15:46 25.9 °C 22.6 °C 1010.4 hPa NW 9.8 km/h   82% 0 mm OVC
15:51 26 °C 22.9 °C 1010.4 hPa NW 9.8 km/h   83% 0 mm OVC
15:57 26.1 °C 22.9 °C 1010.4 hPa West 9.8 km/h 9.8 km/h 83% 0 mm OVC
16:07 26.1 °C 22.4 °C 1010.4 hPa WNW 9.8 km/h 9.8 km/h 80% 0 mm OVC
16:12 26.2 °C 22.7 °C 1010.4 hPa SSW 9.8 km/h 9.8 km/h 81% 0 mm OVC
16:17 26.3 °C 22.8 °C 1010.4 hPa WNW 9.8 km/h 9.8 km/h 81% 0 mm OVC
16:22 26.2 °C 22.7 °C 1010.4 hPa West 9.8 km/h 9.8 km/h 81% 0 mm OVC
16:27 26.2 °C 22.7 °C 1010.4 hPa WNW 9.8 km/h 9.8 km/h 81% 0 mm OVC
16:32 26.1 °C 22.8 °C 1010.4 hPa WNW 9.8 km/h 9.8 km/h 82% 0 mm OVC
16:37 26.1 °C 23.2 °C 1010 hPa WNW 9.8 km/h   84% 0 mm OVC
16:42 25.9 °C 23.2 °C 1010.4 hPa WNW 9.8 km/h 9.8 km/h 85% 0 mm OVC
16:47 25.9 °C 23.4 °C 1010 hPa WNW 9.8 km/h   86% 0 mm OVC
16:52 25.8 °C 23.3 °C 1010 hPa WNW 9.8 km/h   86% 0 mm OVC
16:57 25.8 °C 23.5 °C 1010 hPa WNW 9.8 km/h   87% 0 mm OVC
17:02 25.8 °C 23.3 °C 1009.7 hPa WNW 9.8 km/h   86% 0 mm OVC
17:07 25.9 °C 23.4 °C 1009.7 hPa NE 9.8 km/h 9.8 km/h 86% 0 mm OVC
17:12 26 °C 23.3 °C 1009.7 hPa West 9.8 km/h 9.8 km/h 85% 0 mm OVC
17:17 26.2 °C 23.4 °C 1009.7 hPa West 9.8 km/h   85% 0 mm OVC
17:22 26.4 °C 23.3 °C 1009.7 hPa WNW 9.8 km/h 9.8 km/h 83% 0 mm BKN
17:27 26.7 °C 23.6 °C 1009.7 hPa NW 9.8 km/h   83% 0 mm BKN
17:32 26.9 °C 23.4 °C 1009.4 hPa NW 9.8 km/h 9.8 km/h 81% 0 mm BKN
17:38 27.1 °C 23.6 °C 1009.4 hPa NW 9.8 km/h   81% 0 mm BKN
17:43 27.2 °C 23.9 °C 1009.4 hPa NW 9.8 km/h   82% 0 mm BKN
17:48 27.2 °C 23.4 °C 1009 hPa NW 9.8 km/h   80% 0 mm BKN
17:53 27 °C 23.3 °C 1009 hPa NW 9.8 km/h   80% 0 mm BKN
17:58 26.8 °C 23.3 °C 1009 hPa NW 9.8 km/h   81% 0 mm BKN
18:04 26.7 °C 22.9 °C 1009 hPa NNW 9.8 km/h 9.8 km/h 80% 0 mm BKN
18:09 26.6 °C 23.2 °C 1009 hPa NNW 9.8 km/h   82% 0 mm BKN
18:14 26.5 °C 23.4 °C 1009 hPa NNW 9.8 km/h   83% 0 mm BKN
18:19 26.4 °C 23.3 °C 1009 hPa NNW 9.8 km/h   83% 0 mm BKN
18:24 26.3 °C 23.2 °C 1009 hPa WNW 9.8 km/h   83% 0 mm BKN
18:29 26.2 °C 23.3 °C 1008.7 hPa WNW 9.8 km/h   84% 0 mm BKN
18:34 26.1 °C 23.2 °C 1009 hPa WNW 9.8 km/h   84% 0 mm BKN
18:39 26 °C 22.9 °C 1009 hPa WNW 9.8 km/h   83% 0 mm BKN
18:44 26 °C 22.7 °C 1009 hPa WNW 9.8 km/h   82% 0 mm BKN
18:49 26.1 °C 22.9 °C 1009 hPa WNW 9.8 km/h   83% 0 mm BKN
18:54 26.1 °C 23.2 °C 1009 hPa WNW 9.8 km/h   84% 0 mm OVC
18:59 26.1 °C 23.2 °C 1009 hPa WNW 9.8 km/h   84% 0 mm OVC
19:04 26 °C 22.9 °C 1009 hPa WNW 9.8 km/h   83% 0 mm OVC
19:09 26 °C 22.9 °C 1009.4 hPa WNW 9.8 km/h   83% 0 mm OVC
19:14 25.9 °C 23.1 °C 1009 hPa WNW 9.8 km/h 9.8 km/h 84% 0 mm OVC
19:19 25.9 °C 23 °C 1009.4 hPa WNW 9.8 km/h   84% 0 mm OVC
19:25 25.9 °C 23 °C 1009.4 hPa WNW 9.8 km/h   84% 0 mm BKN
19:30 25.8 °C 22.9 °C 1009 hPa Calm   1.6 km/h 84% 0 mm BKN
19:35 25.8 °C 23.1 °C 1009 hPa Calm     85% 0 mm BKN
19:40 25.8 °C 22.9 °C 1009 hPa Calm     84% 0 mm BKN
19:45 25.8 °C 23.1 °C 1009.4 hPa Calm     85% 0 mm BKN
19:50 25.7 °C 23 °C 1009 hPa Calm     85% 0 mm BKN
19:55 25.7 °C 23.2 °C 1009 hPa Calm     86% 0 mm BKN
20:00 25.6 °C 23.1 °C 1009 hPa WNW 9.8 km/h   86% 0 mm BKN
20:05 25 °C 22.5 °C 1009 hPa Calm     86% 0 mm BKN
20:10 25 °C 22.5 °C 1009 hPa Calm     86% 0 mm BKN
20:15 25 °C 22.5 °C 1009 hPa Calm     86% 0 mm BKN
20:20 25 °C 22.5 °C 1009 hPa North 9.8 km/h   86% 0 mm BKN
20:25 25 °C 22.5 °C 1009 hPa Calm     86% 0 mm -RA
20:30 25 °C 22.5 °C 1009 hPa North 9.8 km/h   86% 0 mm OVC
20:35 25 °C 22.5 °C 1009 hPa Calm     86% 0 mm OVC
20:40 25 °C 22.5 °C 1009.4 hPa Calm     86% 0 mm OVC
20:45 25 °C 22.5 °C 1009 hPa North 9.8 km/h   86% 0 mm OVC
20:50 25 °C 22.5 °C 1009.4 hPa North 9.8 km/h   86% 0 mm OVC
20:55 25 °C 22.5 °C 1009.4 hPa Calm     86% 0 mm OVC
21:00 25 °C 22.5 °C 1009.4 hPa Calm     86% 0 mm OVC
21:05 25 °C 22.5 °C 1009 hPa Calm     86% 0 mm OVC
21:10 25 °C 22.5 °C 1009 hPa Calm     86% 0 mm OVC
21:15 25 °C 22.5 °C 1009 hPa Calm     86% 0 mm OVC
21:20 25 °C 22.5 °C 1009 hPa Calm     86% 0 mm OVC
21:25 25 °C 22.5 °C 1009 hPa Calm     86% 0 mm OVC
21:30 25 °C 22.5 °C 1009 hPa North 9.8 km/h   86% 0 mm OVC
21:35 25 °C 22.5 °C 1009 hPa North 9.8 km/h   86% 0 mm OVC
21:40 25 °C 22.5 °C 1009 hPa North 9.8 km/h   86% 0 mm OVC
21:45 25 °C 22.5 °C 1009 hPa North 9.8 km/h   86% 0 mm OVC
21:50 25 °C 22.5 °C 1009 hPa North 9.8 km/h   86% 0 mm OVC
21:55 25 °C 22.5 °C 1009 hPa North 9.8 km/h   86% 0 mm OVC
22:00 25 °C 22.5 °C 1009 hPa North 9.8 km/h   86% 0 mm OVC
22:05 25 °C 22.5 °C 1009 hPa North 9.8 km/h   86% 0 mm OVC
22:10 25 °C 22.5 °C 1009 hPa North 9.8 km/h   86% 0 mm OVC
22:15 25 °C 22.5 °C 1009.4 hPa North 9.8 km/h   86% 0 mm OVC
22:20 25 °C 22.5 °C 1009 hPa North 9.8 km/h   86% 0 mm OVC
22:25 25 °C 22.5 °C 1009 hPa North 9.8 km/h   86% 0 mm OVC
22:30 25 °C 22.5 °C 1009 hPa North 9.8 km/h   86% 0 mm OVC
22:35 25 °C 22.5 °C 1009.4 hPa North 9.8 km/h   86% 0 mm OVC
22:40 25 °C 22.5 °C 1009 hPa North 9.8 km/h   86% 0 mm OVC
22:46 25 °C 22.5 °C 1009 hPa North 9.8 km/h   86% 0 mm OVC
22:51 25 °C 22.5 °C 1009 hPa North 9.8 km/h   86% 0 mm OVC
22:56 25 °C 22.5 °C 1009 hPa North 9.8 km/h   86% 0 mm OVC
23:01 25 °C 22.5 °C 1009 hPa North 9.8 km/h   86% 0 mm OVC
23:06 25 °C 22.5 °C 1009 hPa North 9.8 km/h   86% 0 mm OVC
23:11 25 °C 22.5 °C 1009 hPa North 9.8 km/h   86% 0 mm OVC
23:16 25 °C 22.5 °C 1009 hPa North 9.8 km/h   86% 0 mm OVC
23:21 25 °C 22.5 °C 1009 hPa North 9.8 km/h   86% 0 mm OVC
23:26 25 °C 22.5 °C 1009 hPa North 9.8 km/h   86% 0 mm OVC
23:31 25 °C 22.5 °C 1009 hPa North 9.8 km/h   86% 0 mm OVC
23:36 25 °C 22.5 °C 1009 hPa North 9.8 km/h   86% 0 mm OVC
23:41 25 °C 22.5 °C 1009 hPa North 9.8 km/h   86% 0 mm OVC
23:46 25 °C 22.5 °C 1009 hPa North 9.8 km/h   86% 0 mm OVC
23:51 25 °C 22.5 °C 1009 hPa North 9.8 km/h   86% 0 mm -RA
23:56 25 °C 22.5 °C 1009 hPa North 9.8 km/h   86% 0 mm -RA
Piedmont Bend
Compliments of Weather Underground - 2 mb